sensor_id;sensor_type;location;lat;lon;timestamp;pressure;altitude;pressure_sealevel;temperature;humidity
62152;BME280;48139;47.474;19.034;2022-08-25T03:46:45;100462.84;;;20.44;96.06
62152;BME280;48139;47.474;19.034;2022-08-25T03:49:48;100462.84;;;20.44;96.06
62152;BME280;48139;47.474;19.034;2022-08-25T03:52:53;100451.63;;;19.99;97.83
62152;BME280;48139;47.474;19.034;2022-08-25T03:55:56;100461.41;;;19.99;98.23
62152;BME280;48139;47.474;19.034;2022-08-25T03:58:58;100462.56;;;20.06;97.34
62152;BME280;48139;47.474;19.034;2022-08-25T04:02:01;100464.03;;;20.10;96.46
62152;BME280;48139;47.474;19.034;2022-08-25T04:05:04;100456.88;;;20.10;96.13
62152;BME280;48139;47.474;19.034;2022-08-25T04:08:07;100470.34;;;20.19;95.60
62152;BME280;48139;47.474;19.034;2022-08-25T04:11:14;100467.84;;;20.17;94.92
62152;BME280;48139;47.474;19.034;2022-08-25T04:14:17;100470.56;;;20.27;95.14
62152;BME280;48139;47.474;19.034;2022-08-25T04:17:20;100468.69;;;20.38;94.92
62152;BME280;48139;47.474;19.034;2022-08-25T04:20:23;100468.97;;;20.35;95.23
62152;BME280;48139;47.474;19.034;2022-08-25T04:23:25;100476.25;;;20.43;94.57
62152;BME280;48139;47.474;19.034;2022-08-25T04:26:30;100472.06;;;20.40;94.47
62152;BME280;48139;47.474;19.034;2022-08-25T04:29:33;100477.78;;;20.36;95.05
62152;BME280;48139;47.474;19.034;2022-08-25T04:32:36;100471.75;;;20.34;95.48
62152;BME280;48139;47.474;19.034;2022-08-25T04:35:39;100474.72;;;20.40;94.57
62152;BME280;48139;47.474;19.034;2022-08-25T04:38:43;100476.97;;;20.45;95.32
62152;BME280;48139;47.474;19.034;2022-08-25T04:41:48;100468.34;;;20.52;94.84
62152;BME280;48139;47.474;19.034;2022-08-25T04:44:52;100472.38;;;20.77;93.78
62152;BME280;48139;47.474;19.034;2022-08-25T04:47:56;100467.19;;;20.76;93.78
62152;BME280;48139;47.474;19.034;2022-08-25T04:51:07;100466.91;;;20.79;93.43
62152;BME280;48139;47.474;19.034;2022-08-25T04:54:12;100468.19;;;20.84;93.07
62152;BME280;48139;47.474;19.034;2022-08-25T04:57:15;100465.53;;;20.84;92.97
62152;BME280;48139;47.474;19.034;2022-08-25T05:00:17;100464.09;;;20.80;93.04
62152;BME280;48139;47.474;19.034;2022-08-25T05:03:20;100465.84;;;20.91;92.18
62152;BME280;48139;47.474;19.034;2022-08-25T05:06:23;100464.63;;;21.05;91.90
62152;BME280;48139;47.474;19.034;2022-08-25T05:09:25;100470.91;;;21.04;91.64
62152;BME280;48139;47.474;19.034;2022-08-25T05:12:29;100471.22;;;21.10;91.83
62152;BME280;48139;47.474;19.034;2022-08-25T05:15:34;100465.22;;;21.18;91.84
62152;BME280;48139;47.474;19.034;2022-08-25T05:18:53;100469.88;;;21.25;90.96
62152;BME280;48139;47.474;19.034;2022-08-25T05:21:56;100466.50;;;21.43;91.28
62152;BME280;48139;47.474;19.034;2022-08-25T05:25:00;100460.50;;;21.50;90.88
62152;BME280;48139;47.474;19.034;2022-08-25T05:28:03;100466.09;;;21.57;90.58
62152;BME280;48139;47.474;19.034;2022-08-25T05:31:06;100465.28;;;21.66;89.83
62152;BME280;48139;47.474;19.034;2022-08-25T05:34:10;100462.59;;;21.76;89.47
62152;BME280;48139;47.474;19.034;2022-08-25T05:37:13;100467.78;;;21.87;88.67
62152;BME280;48139;47.474;19.034;2022-08-25T05:40:15;100465.16;;;21.96;88.02
62152;BME280;48139;47.474;19.034;2022-08-25T05:43:18;100466.81;;;22.17;87.12
62152;BME280;48139;47.474;19.034;2022-08-25T05:46:21;100468.72;;;22.24;85.76
62152;BME280;48139;47.474;19.034;2022-08-25T05:49:24;100472.91;;;22.46;84.32
62152;BME280;48139;47.474;19.034;2022-08-25T05:52:27;100469.59;;;22.62;82.64
62152;BME280;48139;47.474;19.034;2022-08-25T05:55:30;100468.63;;;22.72;82.61
62152;BME280;48139;47.474;19.034;2022-08-25T05:58:36;100465.75;;;22.83;82.33
62152;BME280;48139;47.474;19.034;2022-08-25T06:01:39;100460.09;;;22.86;82.61
62152;BME280;48139;47.474;19.034;2022-08-25T06:05:00;100453.44;;;23.00;84.09
62152;BME280;48139;47.474;19.034;2022-08-25T06:08:03;100458.41;;;23.13;82.56
62152;BME280;48139;47.474;19.034;2022-08-25T06:11:06;100457.44;;;23.31;79.87
62152;BME280;48139;47.474;19.034;2022-08-25T06:14:09;100461.00;;;23.50;77.25
62152;BME280;48139;47.474;19.034;2022-08-25T06:17:12;100464.69;;;23.66;76.48
62152;BME280;48139;47.474;19.034;2022-08-25T06:20:22;100469.88;;;23.86;79.27
62152;BME280;48139;47.474;19.034;2022-08-25T06:23:27;100463.91;;;23.92;75.10
62152;BME280;48139;47.474;19.034;2022-08-25T06:26:29;100462.47;;;24.05;74.30
62152;BME280;48139;47.474;19.034;2022-08-25T06:29:32;100468.56;;;24.33;73.03
62152;BME280;48139;47.474;19.034;2022-08-25T06:32:38;100466.94;;;24.40;70.43
62152;BME280;48139;47.474;19.034;2022-08-25T06:35:42;100470.13;;;24.44;70.57
62152;BME280;48139;47.474;19.034;2022-08-25T06:38:46;100477.87;;;24.55;70.24
62152;BME280;48139;47.474;19.034;2022-08-25T06:41:53;100488.81;;;24.62;68.59
62152;BME280;48139;47.474;19.034;2022-08-25T06:44:55;100489.34;;;24.65;69.96
62152;BME280;48139;47.474;19.034;2022-08-25T06:47:58;100483.84;;;24.75;68.41
62152;BME280;48139;47.474;19.034;2022-08-25T06:51:07;100484.41;;;24.86;68.30
62152;BME280;48139;47.474;19.034;2022-08-25T06:54:15;100484.53;;;25.03;67.46
62152;BME280;48139;47.474;19.034;2022-08-25T06:57:18;100486.41;;;25.18;66.77
62152;BME280;48139;47.474;19.034;2022-08-25T07:00:21;100486.12;;;25.38;66.54
62152;BME280;48139;47.474;19.034;2022-08-25T07:03:31;100489.56;;;25.64;65.58
62152;BME280;48139;47.474;19.034;2022-08-25T07:06:34;100491.78;;;25.85;63.97
62152;BME280;48139;47.474;19.034;2022-08-25T07:09:37;100492.78;;;25.92;64.23
62152;BME280;48139;47.474;19.034;2022-08-25T07:12:40;100487.41;;;25.84;63.17
62152;BME280;48139;47.474;19.034;2022-08-25T07:15:43;100482.19;;;25.90;63.52
62152;BME280;48139;47.474;19.034;2022-08-25T07:18:46;100487.56;;;26.23;62.79
62152;BME280;48139;47.474;19.034;2022-08-25T07:21:51;100483.22;;;26.93;60.99
62152;BME280;48139;47.474;19.034;2022-08-25T07:24:54;100492.31;;;26.76;61.03
62152;BME280;48139;47.474;19.034;2022-08-25T07:27:57;100481.97;;;26.57;63.21
62152;BME280;48139;47.474;19.034;2022-08-25T07:31:00;100485.03;;;26.45;61.70
62152;BME280;48139;47.474;19.034;2022-08-25T07:34:03;100478.97;;;26.52;62.71
62152;BME280;48139;47.474;19.034;2022-08-25T07:37:27;100480.47;;;26.54;61.42
62152;BME280;48139;47.474;19.034;2022-08-25T07:40:50;100482.13;;;26.55;61.61
62152;BME280;48139;47.474;19.034;2022-08-25T07:43:58;100479.78;;;26.60;60.18
62152;BME280;48139;47.474;19.034;2022-08-25T07:47:01;100483.41;;;26.83;60.06
62152;BME280;48139;47.474;19.034;2022-08-25T07:50:06;100485.69;;;27.03;59.22
62152;BME280;48139;47.474;19.034;2022-08-25T07:53:11;100480.78;;;27.06;57.67
62152;BME280;48139;47.474;19.034;2022-08-25T07:56:16;100474.25;;;27.09;56.93
62152;BME280;48139;47.474;19.034;2022-08-25T07:59:20;100472.69;;;27.14;56.84
62152;BME280;48139;47.474;19.034;2022-08-25T08:02:23;100478.19;;;27.29;57.37
62152;BME280;48139;47.474;19.034;2022-08-25T08:05:27;100476.09;;;27.39;55.73
62152;BME280;48139;47.474;19.034;2022-08-25T08:08:29;100471.81;;;27.53;54.65
62152;BME280;48139;47.474;19.034;2022-08-25T08:11:34;100473.09;;;27.65;55.73
62152;BME280;48139;47.474;19.034;2022-08-25T08:14:46;100467.94;;;27.78;53.69
62152;BME280;48139;47.474;19.034;2022-08-25T08:17:49;100479.12;;;27.90;53.42
62152;BME280;48139;47.474;19.034;2022-08-25T08:20:53;100481.53;;;27.99;53.11
62152;BME280;48139;47.474;19.034;2022-08-25T08:23:56;100473.66;;;27.98;53.55
62152;BME280;48139;47.474;19.034;2022-08-25T08:27:00;100475.53;;;27.97;51.97
62152;BME280;48139;47.474;19.034;2022-08-25T08:30:05;100480.81;;;28.05;51.69
62152;BME280;48139;47.474;19.034;2022-08-25T08:33:07;100482.00;;;28.26;51.55
62152;BME280;48139;47.474;19.034;2022-08-25T08:36:13;100472.72;;;28.43;49.98
62152;BME280;48139;47.474;19.034;2022-08-25T08:39:16;100475.34;;;28.66;49.55
62152;BME280;48139;47.474;19.034;2022-08-25T08:42:39;100469.22;;;28.72;50.30
62152;BME280;48139;47.474;19.034;2022-08-25T08:45:51;100466.81;;;28.92;49.68
62152;BME280;48139;47.474;19.034;2022-08-25T08:49:00;100473.59;;;29.02;49.20
62152;BME280;48139;47.474;19.034;2022-08-25T08:52:08;100465.75;;;29.07;50.71
62152;BME280;48139;47.474;19.034;2022-08-25T08:55:27;100466.78;;;29.06;50.82
62152;BME280;48139;47.474;19.034;2022-08-25T08:58:42;100463.97;;;29.14;49.50
62152;BME280;48139;47.474;19.034;2022-08-25T09:01:51;100459.25;;;29.16;48.27
62152;BME280;48139;47.474;19.034;2022-08-25T09:05:03;100457.22;;;29.40;48.12
62152;BME280;48139;47.474;19.034;2022-08-25T09:08:11;100457.06;;;29.41;48.40
62152;BME280;48139;47.474;19.034;2022-08-25T09:14:42;100457.50;;;29.45;48.24
62152;BME280;48139;47.474;19.034;2022-08-25T10:56:23;100343.69;;;31.73;40.58
62152;BME280;48139;47.474;19.034;2022-08-25T10:59:51;100344.50;;;31.53;39.88
62152;BME280;48139;47.474;19.034;2022-08-25T11:03:34;100336.59;;;31.65;40.64
62152;BME280;48139;47.474;19.034;2022-08-25T11:06:47;100335.31;;;31.61;39.71
62152;BME280;48139;47.474;19.034;2022-08-25T11:10:06;100325.56;;;31.60;41.25
62152;BME280;48139;47.474;19.034;2022-08-25T11:13:19;100317.00;;;31.63;39.81
62152;BME280;48139;47.474;19.034;2022-08-25T11:16:34;100319.72;;;31.63;40.16
62152;BME280;48139;47.474;19.034;2022-08-25T11:19:46;100313.66;;;31.74;40.66
62152;BME280;48139;47.474;19.034;2022-08-25T11:22:56;100312.59;;;31.82;40.08
62152;BME280;48139;47.474;19.034;2022-08-25T11:26:09;100308.63;;;31.91;39.13
62152;BME280;48139;47.474;19.034;2022-08-25T11:29:17;100305.94;;;31.78;39.82
62152;BME280;48139;47.474;19.034;2022-08-25T11:32:22;100294.44;;;31.95;39.87
62152;BME280;48139;47.474;19.034;2022-08-25T11:38:58;100286.56;;;31.74;39.87
62152;BME280;48139;47.474;19.034;2022-08-25T11:42:34;100277.56;;;31.87;38.93
62152;BME280;48139;47.474;19.034;2022-08-25T11:58:49;100255.19;;;32.18;38.81
62152;BME280;48139;47.474;19.034;2022-08-25T12:04:56;100245.50;;;32.41;37.77
62152;BME280;48139;47.474;19.034;2022-08-25T12:08:04;100254.63;;;32.54;38.15
62152;BME280;48139;47.474;19.034;2022-08-25T12:11:48;100239.66;;;32.38;38.00
62152;BME280;48139;47.474;19.034;2022-08-25T12:14:50;100250.56;;;32.63;37.65
62152;BME280;48139;47.474;19.034;2022-08-25T12:18:13;100241.97;;;32.41;35.90
62152;BME280;48139;47.474;19.034;2022-08-25T12:21:29;100242.34;;;32.44;37.14
62152;BME280;48139;47.474;19.034;2022-08-25T12:28:31;100240.84;;;32.49;35.93
62152;BME280;48139;47.474;19.034;2022-08-25T12:35:25;100235.16;;;32.19;36.40
62152;BME280;48139;47.474;19.034;2022-08-25T12:38:41;100234.78;;;32.53;35.50
62152;BME280;48139;47.474;19.034;2022-08-25T12:41:57;100229.03;;;32.74;35.68
62152;BME280;48139;47.474;19.034;2022-08-25T12:52:31;100207.78;;;32.65;37.92
62152;BME280;48139;47.474;19.034;2022-08-25T12:55:36;100218.81;;;32.76;36.93
62152;BME280;48139;47.474;19.034;2022-08-25T12:59:09;100218.97;;;32.81;37.08
62152;BME280;48139;47.474;19.034;2022-08-25T13:06:07;100217.94;;;33.07;36.51
62152;BME280;48139;47.474;19.034;2022-08-25T13:12:45;100203.88;;;33.17;37.20
62152;BME280;48139;47.474;19.034;2022-08-25T13:16:15;100207.28;;;33.06;38.00
62152;BME280;48139;47.474;19.034;2022-08-25T13:19:20;100201.69;;;33.01;37.78
62152;BME280;48139;47.474;19.034;2022-08-25T13:22:25;100196.37;;;32.88;37.11
62152;BME280;48139;47.474;19.034;2022-08-25T13:25:29;100196.16;;;32.89;36.67
62152;BME280;48139;47.474;19.034;2022-08-25T13:28:37;100194.34;;;32.83;36.90
62152;BME280;48139;47.474;19.034;2022-08-25T13:32:12;100192.63;;;32.89;36.16
62152;BME280;48139;47.474;19.034;2022-08-25T13:35:28;100191.47;;;33.03;36.25
62152;BME280;48139;47.474;19.034;2022-08-25T13:38:34;100187.41;;;32.87;36.57
62152;BME280;48139;47.474;19.034;2022-08-25T13:41:43;100182.03;;;32.80;36.81
62152;BME280;48139;47.474;19.034;2022-08-25T13:44:47;100170.91;;;32.57;36.89
62152;BME280;48139;47.474;19.034;2022-08-25T13:47:55;100174.28;;;32.53;37.22
62152;BME280;48139;47.474;19.034;2022-08-25T13:51:17;100181.47;;;32.40;38.42
62152;BME280;48139;47.474;19.034;2022-08-25T13:54:26;100179.06;;;32.13;38.06
62152;BME280;48139;47.474;19.034;2022-08-25T13:57:30;100178.47;;;31.66;40.55
62152;BME280;48139;47.474;19.034;2022-08-25T14:00:40;100164.50;;;31.49;42.14
62152;BME280;48139;47.474;19.034;2022-08-25T14:03:46;100175.94;;;31.58;40.21
62152;BME280;48139;47.474;19.034;2022-08-25T14:07:30;100162.78;;;31.75;39.79
62152;BME280;48139;47.474;19.034;2022-08-25T14:10:38;100164.22;;;31.84;39.73
62152;BME280;48139;47.474;19.034;2022-08-25T14:13:44;100168.47;;;31.67;39.72
62152;BME280;48139;47.474;19.034;2022-08-25T14:16:52;100162.22;;;31.53;40.55
62152;BME280;48139;47.474;19.034;2022-08-25T14:19:59;100157.88;;;31.39;39.62
62152;BME280;48139;47.474;19.034;2022-08-25T14:23:06;100151.81;;;31.43;40.67
62152;BME280;48139;47.474;19.034;2022-08-25T14:26:11;100155.13;;;31.52;40.40
62152;BME280;48139;47.474;19.034;2022-08-25T14:29:15;100145.75;;;31.61;38.86
62152;BME280;48139;47.474;19.034;2022-08-25T14:32:18;100150.13;;;31.62;39.69
62152;BME280;48139;47.474;19.034;2022-08-25T14:35:20;100147.56;;;31.74;38.73
62152;BME280;48139;47.474;19.034;2022-08-25T14:38:24;100142.41;;;31.66;39.56
62152;BME280;48139;47.474;19.034;2022-08-25T14:41:28;100143.06;;;31.54;40.38
62152;BME280;48139;47.474;19.034;2022-08-25T14:44:30;100136.16;;;31.65;38.72
62152;BME280;48139;47.474;19.034;2022-08-25T14:47:34;100133.44;;;31.72;40.09
62152;BME280;48139;47.474;19.034;2022-08-25T14:50:37;100131.75;;;31.71;40.45
62152;BME280;48139;47.474;19.034;2022-08-25T14:53:43;100135.31;;;31.58;40.60
62152;BME280;48139;47.474;19.034;2022-08-25T14:56:46;100137.41;;;31.62;40.07
62152;BME280;48139;47.474;19.034;2022-08-25T14:59:49;100139.53;;;31.47;41.49
62152;BME280;48139;47.474;19.034;2022-08-25T15:02:53;100134.16;;;31.34;40.66
62152;BME280;48139;47.474;19.034;2022-08-25T15:05:56;100136.22;;;31.39;40.49
62152;BME280;48139;47.474;19.034;2022-08-25T15:08:59;100132.88;;;31.37;42.55
62152;BME280;48139;47.474;19.034;2022-08-25T15:12:12;100126.00;;;31.41;41.52
62152;BME280;48139;47.474;19.034;2022-08-25T15:15:27;100127.28;;;31.25;41.75
62152;BME280;48139;47.474;19.034;2022-08-25T15:18:30;100121.47;;;31.28;41.04
62152;BME280;48139;47.474;19.034;2022-08-25T15:21:35;100127.66;;;31.48;41.11
62152;BME280;48139;47.474;19.034;2022-08-25T15:24:38;100126.56;;;31.56;40.39
62152;BME280;48139;47.474;19.034;2022-08-25T15:27:40;100127.84;;;31.53;40.11
